Time;durP1;ratioP1;P1;durP2;ratioP2;P2;SDS_P1;SDS_P2;PMS_P1;PMS_P2;Temp;Humidity;BMP_temperature;BMP_pressure;BME280_temperature;BME280_humidity;BME280_pressure;Samples;Min_cycle;Max_cycle;Signal;HPM_P1;HPM_P2
2023/02/28 00:00:26;;;;;;;6.00;4.97;;;4.10;72.20;;;;;;5048372;28;20457;-70
2023/02/28 00:02:52;;;;;;;5.90;4.50;;;4.10;72.50;;;;;;5046384;28;20433;-69
2023/02/28 00:05:20;;;;;;;8.03;4.73;;;4.10;72.80;;;;;;5049848;28;20438;-70
2023/02/28 00:07:46;;;;;;;7.20;4.87;;;4.10;72.90;;;;;;5049175;28;20249;-69
2023/02/28 00:10:15;;;;;;;5.50;5.00;;;4.10;73.00;;;;;;5044855;28;20767;-69
2023/02/28 00:12:41;;;;;;;8.37;5.77;;;4.00;73.40;;;;;;5044202;28;20492;-69
2023/02/28 00:15:08;;;;;;;5.37;4.47;;;4.00;73.40;;;;;;5048361;28;20414;-69
2023/02/28 00:17:34;;;;;;;5.90;5.30;;;4.00;73.70;;;;;;5049665;28;20976;-70
2023/02/28 00:20:03;;;;;;;5.10;4.60;;;4.00;74.70;;;;;;5049699;28;20441;-69
2023/02/28 00:22:28;;;;;;;6.23;4.97;;;4.00;74.30;;;;;;5051180;28;20523;-70
2023/02/28 00:24:54;;;;;;;7.73;5.27;;;4.00;74.40;;;;;;5048566;28;20445;-70
2023/02/28 00:27:20;;;;;;;8.00;4.60;;;3.90;74.50;;;;;;5051645;28;20757;-69
2023/02/28 00:29:46;;;;;;;8.80;5.50;;;3.90;74.60;;;;;;5048930;28;20773;-70
2023/02/28 00:32:13;;;;;;;6.47;4.80;;;3.90;75.00;;;;;;5050162;28;20175;-70
2023/02/28 00:34:38;;;;;;;5.50;4.80;;;3.90;75.00;;;;;;5049489;28;20441;-70
2023/02/28 00:37:05;;;;;;;7.50;5.00;;;3.90;75.30;;;;;;5044377;28;20450;-69
2023/02/28 00:39:32;;;;;;;5.77;4.90;;;3.90;75.50;;;;;;5048291;28;20760;-69
2023/02/28 00:41:58;;;;;;;6.10;5.50;;;3.90;75.60;;;;;;5049321;28;20441;-69
2023/02/28 00:44:23;;;;;;;5.70;4.53;;;3.90;75.70;;;;;;5046758;28;20445;-70
2023/02/28 00:46:49;;;;;;;5.00;4.50;;;3.90;75.70;;;;;;5050925;28;20234;-70
2023/02/28 00:49:14;;;;;;;5.60;5.00;;;3.90;75.80;;;;;;5051185;28;20599;-70
2023/02/28 00:51:40;;;;;;;5.27;4.77;;;3.90;76.10;;;;;;5054105;28;20731;-69
2023/02/28 00:54:06;;;;;;;6.00;5.03;;;3.90;76.20;;;;;;5046999;28;22177;-69
2023/02/28 00:56:31;;;;;;;4.93;4.53;;;3.90;76.30;;;;;;5052816;28;20244;-69
2023/02/28 00:58:57;;;;;;;5.80;5.17;;;3.90;76.40;;;;;;5046975;28;20190;-69
2023/02/28 01:01:22;;;;;;;5.87;4.80;;;3.90;76.60;;;;;;5050438;28;20175;-69
2023/02/28 01:03:48;;;;;;;4.57;4.17;;;3.80;76.50;;;;;;5048971;28;20188;-70
2023/02/28 01:06:13;;;;;;;5.73;5.13;;;3.90;76.90;;;;;;5063861;28;20226;-70
2023/02/28 01:08:39;;;;;;;6.30;5.23;;;3.80;76.90;;;;;;5046786;28;20898;-68
2023/02/28 01:11:10;;;;;;;5.40;4.87;;;3.80;77.20;;;;;;5042261;28;20186;-70
2023/02/28 01:13:36;;;;;;;5.50;4.90;;;3.80;77.50;;;;;;5046698;28;20199;-69
2023/02/28 01:16:02;;;;;;;5.50;4.97;;;3.80;77.70;;;;;;5044285;28;20852;-69
2023/02/28 01:18:28;;;;;;;6.33;4.97;;;3.70;78.00;;;;;;5046271;28;20430;-70
2023/02/28 01:20:54;;;;;;;5.83;4.50;;;3.70;78.10;;;;;;5043449;28;20444;-69
2023/02/28 01:23:23;;;;;;;5.63;5.00;;;3.70;78.40;;;;;;5048857;28;20211;-68
2023/02/28 01:25:48;;;;;;;7.17;5.33;;;3.70;78.70;;;;;;5047961;28;20602;-68
2023/02/28 01:28:14;;;;;;;5.77;4.80;;;3.70;78.60;;;;;;5050357;28;20445;-69
2023/02/28 01:30:40;;;;;;;6.27;4.93;;;3.70;78.90;;;;;;5050644;28;20611;-70
2023/02/28 01:33:05;;;;;;;5.47;4.97;;;3.70;79.10;;;;;;5050271;28;20218;-69
2023/02/28 01:35:35;;;;;;;5.30;4.80;;;3.60;79.20;;;;;;5051601;28;20677;-70
2023/02/28 01:38:02;;;;;;;9.77;4.63;;;3.60;79.20;;;;;;5052058;28;20636;-69
2023/02/28 01:40:27;;;;;;;6.10;4.87;;;3.60;79.60;;;;;;5048050;28;20433;-69
2023/02/28 01:42:53;;;;;;;5.60;5.00;;;3.60;79.90;;;;;;5048686;28;20445;-69
2023/02/28 01:45:26;;;;;;;6.50;5.43;;;3.60;80.00;;;;;;5048225;28;20199;-69
2023/02/28 01:47:57;;;;;;;5.60;5.00;;;3.60;80.40;;;;;;5047515;28;20254;-69
2023/02/28 01:50:29;;;;;;;6.63;5.00;;;3.60;80.50;;;;;;5048849;28;20480;-69
2023/02/28 01:52:59;;;;;;;5.83;4.83;;;3.60;80.60;;;;;;5049766;28;20488;-69
2023/02/28 01:55:28;;;;;;;5.80;4.83;;;3.60;80.60;;;;;;5050002;28;20551;-70
2023/02/28 01:57:56;;;;;;;5.27;4.77;;;3.60;80.90;;;;;;5049155;28;21216;-69
2023/02/28 02:00:26;;;;;;;4.87;4.37;;;3.60;81.10;;;;;;5050966;28;20430;-69
2023/02/28 02:02:56;;;;;;;5.83;5.33;;;3.60;81.30;;;;;;5052528;28;21311;-69
2023/02/28 02:05:30;;;;;;;6.10;4.90;;;3.50;81.30;;;;;;5048319;28;20787;-69
2023/02/28 02:08:01;;;;;;;5.77;5.00;;;3.50;81.70;;;;;;5050646;28;20445;-70
2023/02/28 02:10:35;;;;;;;5.90;4.60;;;3.50;82.00;;;;;;5034054;28;20816;-69
2023/02/28 02:13:22;;;;;;;5.80;5.23;;;3.40;82.40;;;;;;5047878;28;20549;-70
2023/02/28 02:16:15;;;;;;;6.10;5.50;;;3.40;82.60;;;;;;5045540;28;20434;-67
2023/02/28 02:18:57;;;;;;;5.27;4.77;;;3.40;82.80;;;;;;5053718;28;20549;-69
2023/02/28 02:21:28;;;;;;;5.67;4.70;;;3.40;83.20;;;;;;5052336;28;20482;-68
2023/02/28 02:24:30;;;;;;;6.80;5.27;;;3.40;83.50;;;;;;5049126;28;20661;-68
2023/02/28 02:27:10;;;;;;;7.30;5.10;;;3.40;83.70;;;;;;5043000;28;21219;-69
2023/02/28 02:29:38;;;;;;;5.00;4.60;;;3.30;83.90;;;;;;5051412;28;20433;-69
2023/02/28 02:32:36;;;;;;;6.07;5.43;;;3.30;83.90;;;;;;5050619;28;20808;-69
2023/02/28 02:35:22;;;;;;;6.13;5.23;;;3.30;85.40;;;;;;5051059;28;20919;-69
2023/02/28 02:37:54;;;;;;;6.07;5.40;;;3.20;84.80;;;;;;5042339;28;20430;-69
2023/02/28 02:40:34;;;;;;;7.17;4.70;;;3.20;84.90;;;;;;5050951;28;20445;-69
2023/02/28 02:43:06;;;;;;;6.97;5.13;;;3.20;85.30;;;;;;5048809;28;20422;-69
2023/02/28 02:45:59;;;;;;;5.73;5.03;;;3.20;85.70;;;;;;5052592;28;20465;-69
2023/02/28 02:48:29;;;;;;;10.90;5.00;;;3.20;85.90;;;;;;5049523;28;20433;-69
2023/02/28 02:50:58;;;;;;;6.10;4.87;;;3.20;86.20;;;;;;5051410;28;20516;-69
2023/02/28 02:53:34;;;;;;;6.93;5.70;;;3.20;86.30;;;;;;5047604;28;20473;-70
2023/02/28 02:56:02;;;;;;;6.53;5.90;;;3.20;86.40;;;;;;5052460;28;20485;-70
2023/02/28 02:58:34;;;;;;;5.93;5.27;;;3.20;86.50;;;;;;5048986;28;20439;-69
2023/02/28 03:01:03;;;;;;;5.77;5.17;;;3.20;86.60;;;;;;5049750;28;20445;-69
2023/02/28 03:03:30;;;;;;;6.37;5.60;;;3.20;86.70;;;;;;5051227;28;20434;-69
2023/02/28 03:06:01;;;;;;;6.00;5.40;;;3.30;86.90;;;;;;5049875;28;20453;-71
2023/02/28 03:08:28;;;;;;;8.00;6.00;;;3.30;87.20;;;;;;5047132;28;20438;-70
2023/02/28 03:11:00;;;;;;;5.03;4.50;;;3.30;87.30;;;;;;5048709;28;20573;-70
2023/02/28 03:13:44;;;;;;;6.30;5.30;;;3.30;87.50;;;;;;5050444;28;20457;-70
2023/02/28 03:16:32;;;;;;;11.17;5.37;;;3.30;87.90;;;;;;5050827;28;20499;-70
2023/02/28 03:19:28;;;;;;;8.27;5.70;;;3.30;88.10;;;;;;5049913;28;20481;-71
2023/02/28 03:22:15;;;;;;;7.17;5.27;;;3.30;88.10;;;;;;5050308;28;21181;-70
2023/02/28 03:25:00;;;;;;;7.33;5.80;;;3.30;88.30;;;;;;5050676;28;20900;-71
2023/02/28 03:27:30;;;;;;;5.80;5.20;;;3.30;88.50;;;;;;5046252;28;21006;-69
2023/02/28 03:29:55;;;;;;;7.70;5.50;;;3.30;88.60;;;;;;5048055;28;20848;-69
2023/02/28 03:32:30;;;;;;;7.63;5.70;;;3.30;89.30;;;;;;5051164;28;20438;-69
2023/02/28 03:35:11;;;;;;;6.43;5.50;;;3.30;89.50;;;;;;5048790;28;20212;-69
2023/02/28 03:37:40;;;;;;;7.10;5.43;;;3.30;89.70;;;;;;5047093;28;20458;-70
2023/02/28 03:40:12;;;;;;;9.77;5.27;;;3.30;89.90;;;;;;5051043;28;20440;-69
2023/02/28 03:42:41;;;;;;;7.03;5.53;;;3.20;90.10;;;;;;5051090;28;20445;-69
2023/02/28 03:45:24;;;;;;;6.60;5.50;;;3.30;90.20;;;;;;5045214;28;21121;-69
2023/02/28 03:47:55;;;;;;;6.47;5.77;;;3.20;90.20;;;;;;5047273;28;20476;-69
2023/02/28 03:50:43;;;;;;;6.90;5.90;;;3.30;90.40;;;;;;5051117;28;20478;-71
2023/02/28 03:53:25;;;;;;;6.70;6.00;;;3.30;90.40;;;;;;5047357;28;20994;-71
2023/02/28 03:55:59;;;;;;;9.03;5.70;;;3.30;90.50;;;;;;5048381;28;21160;-69
2023/02/28 03:59:02;;;;;;;7.53;5.53;;;3.40;90.60;;;;;;5046882;28;20513;-69
2023/02/28 04:01:38;;;;;;;6.33;5.73;;;3.40;90.70;;;;;;5043201;28;20524;-68
2023/02/28 04:04:04;;;;;;;6.17;5.60;;;3.40;90.70;;;;;;5042750;28;20494;-69
2023/02/28 04:06:32;;;;;;;8.37;6.20;;;3.40;90.80;;;;;;5046887;28;20458;-69
2023/02/28 04:08:58;;;;;;;6.70;5.97;;;3.40;90.90;;;;;;5045563;28;20446;-69
2023/02/28 04:11:43;;;;;;;6.87;5.93;;;3.40;90.80;;;;;;5047755;28;20446;-69
2023/02/28 04:14:10;;;;;;;7.37;5.30;;;3.30;90.90;;;;;;5045431;28;21274;-68
2023/02/28 04:16:40;;;;;;;6.20;5.60;;;3.40;91.00;;;;;;5046054;28;20464;-68
2023/02/28 04:19:07;;;;;;;7.27;6.00;;;3.40;91.00;;;;;;5049094;28;20449;-68
2023/02/28 04:21:35;;;;;;;7.47;5.60;;;3.40;91.50;;;;;;5038073;28;20456;-69
2023/02/28 04:24:02;;;;;;;7.47;5.80;;;3.40;91.20;;;;;;5043806;28;20449;-69
2023/02/28 04:26:32;;;;;;;7.77;5.80;;;3.40;91.20;;;;;;5049194;28;20472;-68
2023/02/28 04:28:59;;;;;;;7.80;5.10;;;3.50;91.30;;;;;;5049127;28;20437;-69
2023/02/28 04:31:25;;;;;;;7.47;6.10;;;3.50;91.30;;;;;;5042312;28;21033;-68
2023/02/28 04:33:51;;;;;;;7.10;6.40;;;3.50;91.40;;;;;;5045818;28;20470;-69
2023/02/28 04:36:22;;;;;;;8.50;6.27;;;3.50;91.30;;;;;;5051357;28;20203;-69
2023/02/28 04:38:48;;;;;;;7.97;6.40;;;3.50;91.30;;;;;;5047788;28;20441;-70
2023/02/28 04:41:13;;;;;;;8.20;5.87;;;3.50;91.30;;;;;;5047163;28;20961;-69
2023/02/28 04:43:39;;;;;;;7.63;5.77;;;3.50;91.30;;;;;;5049196;28;20209;-69
2023/02/28 04:46:05;;;;;;;7.00;6.30;;;3.50;91.40;;;;;;5039587;28;20594;-70
2023/02/28 04:48:34;;;;;;;8.17;5.90;;;3.50;91.50;;;;;;5054170;28;20194;-69
2023/02/28 04:51:12;;;;;;;7.07;5.87;;;3.50;91.50;;;;;;5046536;28;20426;-69
2023/02/28 04:53:40;;;;;;;5.80;5.30;;;3.50;91.50;;;;;;5045359;28;20457;-71
2023/02/28 04:56:06;;;;;;;8.33;5.43;;;3.50;91.60;;;;;;5045419;28;20461;-68
2023/02/28 04:58:33;;;;;;;6.63;5.93;;;3.50;91.60;;;;;;5048271;28;20528;-67
2023/02/28 05:01:04;;;;;;;8.60;6.20;;;3.50;91.60;;;;;;5047529;28;20475;-68
2023/02/28 05:03:30;;;;;;;11.60;6.40;;;3.50;91.70;;;;;;5051118;28;20512;-68
2023/02/28 05:05:55;;;;;;;8.13;6.10;;;3.50;91.70;;;;;;5052041;28;20532;-69
2023/02/28 05:08:21;;;;;;;6.87;6.17;;;3.40;91.70;;;;;;5056598;28;20269;-71
2023/02/28 05:10:47;;;;;;;7.00;6.30;;;3.40;92.10;;;;;;5055162;28;20576;-69
2023/02/28 05:13:13;;;;;;;10.87;6.40;;;3.40;91.90;;;;;;5051406;28;20210;-68
2023/02/28 05:15:38;;;;;;;8.00;6.50;;;3.40;91.90;;;;;;5055800;28;21047;-68
2023/02/28 05:18:04;;;;;;;9.90;6.97;;;3.40;91.90;;;;;;5053698;28;20538;-69
2023/02/28 05:20:30;;;;;;;9.40;7.30;;;3.40;91.90;;;;;;5055139;28;20638;-69
2023/02/28 05:22:57;;;;;;;8.47;7.10;;;3.40;92.00;;;;;;5053525;28;20202;-69
2023/02/28 05:25:23;;;;;;;8.87;6.80;;;3.40;92.00;;;;;;5050632;28;20661;-69
2023/02/28 05:27:48;;;;;;;6.77;6.07;;;3.40;92.00;;;;;;5054498;28;20450;-70
2023/02/28 05:30:15;;;;;;;6.63;5.93;;;3.40;91.90;;;;;;5048818;28;20213;-68
2023/02/28 05:32:42;;;;;;;7.23;6.13;;;3.40;92.00;;;;;;5047062;28;20213;-69
2023/02/28 05:35:09;;;;;;;6.80;6.10;;;3.30;92.10;;;;;;5054671;28;20474;-69
2023/02/28 05:37:35;;;;;;;8.03;6.20;;;3.40;92.50;;;;;;5054054;28;20471;-69
2023/02/28 05:40:01;;;;;;;9.17;6.70;;;3.40;92.00;;;;;;5046250;28;20831;-68
2023/02/28 05:42:27;;;;;;;12.17;6.80;;;3.30;92.10;;;;;;5052084;28;20394;-69
2023/02/28 05:44:52;;;;;;;8.60;6.50;;;3.30;92.30;;;;;;5053529;28;20444;-69
2023/02/28 05:47:18;;;;;;;8.20;6.80;;;3.40;92.20;;;;;;5053328;28;20219;-68
2023/02/28 05:49:43;;;;;;;6.60;5.90;;;3.30;92.20;;;;;;5052184;28;20560;-68
2023/02/28 05:52:09;;;;;;;6.57;5.90;;;3.30;92.30;;;;;;5047942;28;20649;-68
2023/02/28 05:54:34;;;;;;;9.63;6.53;;;3.40;92.40;;;;;;5050854;28;20663;-68
2023/02/28 05:57:00;;;;;;;9.00;6.63;;;3.40;92.50;;;;;;5053582;28;20671;-68
2023/02/28 05:59:25;;;;;;;7.63;6.50;;;3.40;92.50;;;;;;5054134;28;20187;-68
2023/02/28 06:01:52;;;;;;;8.67;6.80;;;3.40;92.80;;;;;;5056776;28;20175;-69
2023/02/28 06:04:19;;;;;;;8.10;7.00;;;3.40;92.50;;;;;;5052778;28;20840;-69
2023/02/28 06:06:49;;;;;;;8.40;7.50;;;3.30;92.60;;;;;;5052349;28;20800;-69
2023/02/28 06:09:15;;;;;;;8.87;7.30;;;3.30;92.60;;;;;;5048280;28;20443;-69
2023/02/28 06:11:41;;;;;;;8.60;7.43;;;3.40;92.60;;;;;;5052723;28;20461;-68
2023/02/28 06:14:07;;;;;;;8.37;6.80;;;3.30;92.70;;;;;;5050857;28;20477;-69
2023/02/28 06:16:35;;;;;;;6.90;6.10;;;3.40;92.80;;;;;;5048272;28;20477;-69
2023/02/28 06:19:03;;;;;;;7.70;6.90;;;3.30;92.90;;;;;;5054109;28;20831;-70
2023/02/28 06:21:29;;;;;;;8.70;6.53;;;3.40;93.00;;;;;;5054993;28;20414;-69
2023/02/28 06:23:56;;;;;;;9.43;6.53;;;3.40;93.00;;;;;;5054189;28;20450;-69
2023/02/28 06:26:22;;;;;;;9.63;6.83;;;3.40;93.00;;;;;;5049686;28;20584;-69
2023/02/28 06:28:48;;;;;;;8.03;6.53;;;3.40;93.00;;;;;;5053805;28;20438;-69
2023/02/28 06:31:15;;;;;;;10.17;7.53;;;3.40;93.10;;;;;;5049458;28;20492;-69
2023/02/28 06:33:43;;;;;;;9.47;6.87;;;3.40;93.00;;;;;;5050514;28;20211;-69
2023/02/28 06:36:10;;;;;;;8.63;7.23;;;3.40;93.10;;;;;;5048766;28;20493;-68
2023/02/28 06:38:36;;;;;;;8.40;6.73;;;3.40;93.00;;;;;;5051602;28;20469;-69
2023/02/28 06:41:03;;;;;;;9.73;6.60;;;3.40;93.20;;;;;;5049796;28;20479;-68
2023/02/28 06:43:30;;;;;;;9.97;6.60;;;3.40;93.20;;;;;;5052572;28;20962;-69
2023/02/28 06:45:57;;;;;;;8.63;6.87;;;3.40;93.30;;;;;;5048337;28;20531;-69
2023/02/28 06:48:23;;;;;;;7.47;6.67;;;3.40;93.10;;;;;;5047790;28;20449;-68
2023/02/28 06:50:49;;;;;;;7.80;6.37;;;3.40;93.20;;;;;;5047169;28;20424;-68
2023/02/28 06:53:15;;;;;;;7.97;7.17;;;3.40;93.30;;;;;;5050367;28;21335;-68
2023/02/28 06:55:41;;;;;;;7.47;6.70;;;3.40;93.20;;;;;;5046390;28;20533;-69
2023/02/28 06:58:18;;;;;;;8.27;6.47;;;3.50;93.30;;;;;;5048416;28;20871;-69
2023/02/28 07:00:45;;;;;;;9.53;6.97;;;3.50;93.30;;;;;;5052244;28;20648;-69
2023/02/28 07:03:12;;;;;;;8.80;6.80;;;3.50;93.40;;;;;;5049313;28;20448;-68
2023/02/28 07:05:38;;;;;;;10.50;7.00;;;3.50;93.30;;;;;;5049751;28;20728;-69
2023/02/28 07:08:05;;;;;;;11.07;7.00;;;3.60;93.30;;;;;;5045919;28;20503;-69
2023/02/28 07:10:34;;;;;;;8.70;6.30;;;3.60;93.30;;;;;;5046694;28;20821;-69
2023/02/28 07:13:00;;;;;;;8.67;6.40;;;3.60;93.30;;;;;;5052101;28;20461;-69
2023/02/28 07:15:25;;;;;;;15.73;6.83;;;3.60;93.40;;;;;;5048315;28;21282;-69
2023/02/28 07:17:51;;;;;;;10.20;6.80;;;3.60;93.40;;;;;;5047743;28;20642;-68
2023/02/28 07:20:17;;;;;;;7.43;6.13;;;3.60;93.50;;;;;;5044489;28;20980;-68
2023/02/28 07:22:42;;;;;;;9.57;6.80;;;3.70;93.30;;;;;;5048490;28;20267;-68
2023/02/28 07:25:09;;;;;;;15.30;7.53;;;3.70;93.10;;;;;;5044469;28;20775;-68
2023/02/28 07:27:34;;;;;;;9.53;6.80;;;3.70;93.20;;;;;;5049138;28;20545;-68
2023/02/28 07:30:03;;;;;;;7.60;6.70;;;3.70;93.30;;;;;;5051222;28;20805;-69
2023/02/28 07:32:29;;;;;;;8.00;7.20;;;3.70;93.40;;;;;;5051774;28;20206;-68
2023/02/28 07:34:55;;;;;;;8.90;7.10;;;3.70;93.40;;;;;;5047872;28;20515;-69
2023/02/28 07:37:20;;;;;;;15.57;7.93;;;3.70;93.30;;;;;;5045434;28;20230;-68
2023/02/28 07:39:46;;;;;;;11.90;8.00;;;3.70;93.40;;;;;;5047171;28;20422;-69
2023/02/28 07:42:12;;;;;;;9.77;7.40;;;3.80;93.40;;;;;;5044446;28;20236;-69
2023/02/28 07:44:42;;;;;;;9.63;6.67;;;3.80;93.20;;;;;;5052596;28;20179;-69
2023/02/28 07:47:09;;;;;;;11.50;7.17;;;3.70;93.20;;;;;;5049616;28;20469;-68
2023/02/28 07:49:36;;;;;;;10.30;7.40;;;3.80;93.40;;;;;;5041775;28;20413;-68
2023/02/28 07:52:03;;;;;;;11.77;7.60;;;3.80;93.20;;;;;;5048299;28;20463;-68
2023/02/28 07:54:29;;;;;;;10.53;7.40;;;3.80;93.20;;;;;;5047707;28;21023;-67
2023/02/28 07:56:54;;;;;;;9.90;7.63;;;3.80;93.20;;;;;;5045366;28;20464;-69
2023/02/28 07:59:20;;;;;;;10.30;8.27;;;3.80;93.10;;;;;;5044153;28;20421;-70
2023/02/28 08:01:45;;;;;;;8.60;7.50;;;3.80;93.10;;;;;;5048758;28;20224;-68
2023/02/28 08:04:11;;;;;;;8.97;7.70;;;3.80;93.20;;;;;;5045949;28;20190;-69
2023/02/28 08:06:36;;;;;;;9.43;8.00;;;3.80;93.10;;;;;;5050291;28;20331;-69
2023/02/28 08:09:02;;;;;;;8.33;7.23;;;3.70;93.10;;;;;;5041752;28;20222;-69
2023/02/28 08:11:28;;;;;;;8.97;7.10;;;3.70;93.30;;;;;;5045575;28;20221;-69
2023/02/28 08:13:54;;;;;;;10.20;7.40;;;3.70;93.30;;;;;;5045862;28;20461;-70
2023/02/28 08:16:21;;;;;;;12.73;7.90;;;3.70;93.30;;;;;;5050197;28;21006;-69
2023/02/28 08:18:49;;;;;;;10.00;7.63;;;3.80;93.20;;;;;;5049664;28;20418;-67
2023/02/28 08:21:14;;;;;;;8.43;6.83;;;3.90;93.00;;;;;;5048190;28;20425;-69
2023/02/28 08:23:40;;;;;;;10.03;7.60;;;3.90;93.00;;;;;;5045881;28;20456;-68
2023/02/28 08:26:06;;;;;;;10.40;7.37;;;3.90;93.20;;;;;;5043862;28;20452;-69
2023/02/28 08:28:31;;;;;;;11.30;8.07;;;3.90;93.30;;;;;;5051526;28;20186;-68
2023/02/28 08:30:57;;;;;;;8.90;7.93;;;4.00;93.10;;;;;;5049304;28;20798;-69
2023/02/28 08:33:23;;;;;;;9.80;7.47;;;3.90;93.20;;;;;;5053924;28;20471;-69
2023/02/28 08:35:53;;;;;;;11.20;7.83;;;4.00;93.00;;;;;;5047239;28;20183;-68
2023/02/28 08:38:19;;;;;;;13.57;8.13;;;4.00;93.10;;;;;;5051557;28;20418;-67
2023/02/28 08:40:45;;;;;;;9.83;7.83;;;4.00;93.00;;;;;;5056106;28;21188;-68
2023/02/28 08:43:10;;;;;;;9.20;7.77;;;4.00;93.10;;;;;;5053047;28;20448;-68
2023/02/28 08:45:36;;;;;;;10.60;8.53;;;4.10;93.00;;;;;;5057219;28;20189;-68
2023/02/28 08:48:02;;;;;;;14.33;9.03;;;4.00;92.80;;;;;;5057889;28;20226;-67
2023/02/28 08:50:27;;;;;;;11.27;8.30;;;4.10;93.00;;;;;;5057274;28;20785;-67
2023/02/28 08:52:53;;;;;;;9.93;8.27;;;4.10;93.10;;;;;;5053562;28;20465;-69
2023/02/28 08:55:18;;;;;;;12.77;8.30;;;4.30;93.00;;;;;;5054708;28;20239;-68
2023/02/28 08:57:44;;;;;;;10.73;9.00;;;4.30;92.90;;;;;;5056081;28;20755;-68
2023/02/28 09:00:13;;;;;;;13.47;8.27;;;4.40;93.20;;;;;;5059602;28;20183;-70
2023/02/28 09:02:39;;;;;;;10.40;8.33;;;4.40;93.00;;;;;;5056929;28;20179;-69
2023/02/28 09:05:05;;;;;;;11.30;9.47;;;4.40;92.90;;;;;;5057167;28;20438;-70
2023/02/28 09:07:30;;;;;;;11.80;8.60;;;4.50;92.90;;;;;;5060060;28;20207;-70
2023/02/28 09:09:57;;;;;;;11.37;8.40;;;4.60;92.70;;;;;;5056203;28;20495;-70
2023/02/28 09:12:24;;;;;;;11.23;8.27;;;4.60;92.80;;;;;;5055988;28;21511;-72
2023/02/28 09:14:50;;;;;;;9.90;7.80;;;4.70;92.50;;;;;;5052649;28;20514;-73
2023/02/28 09:17:16;;;;;;;11.30;8.60;;;4.70;92.10;;;;;;5059394;28;20511;-73
2023/02/28 09:19:42;;;;;;;11.30;8.20;;;4.70;91.90;;;;;;5060628;28;20535;-72
2023/02/28 09:22:09;;;;;;;11.47;8.50;;;4.80;92.20;;;;;;5057098;28;20946;-68
2023/02/28 09:24:35;;;;;;;10.43;8.03;;;4.80;91.90;;;;;;5056854;28;20182;-69
2023/02/28 09:27:01;;;;;;;10.47;8.63;;;4.70;91.70;;;;;;5052661;28;20543;-67
2023/02/28 09:29:26;;;;;;;13.30;9.30;;;4.80;92.00;;;;;;5057139;28;20840;-67
2023/02/28 09:31:52;;;;;;;11.13;8.50;;;4.90;91.80;;;;;;5052615;28;20184;-68
2023/02/28 09:34:18;;;;;;;9.47;7.60;;;5.00;91.70;;;;;;5055118;28;20622;-68
2023/02/28 09:36:43;;;;;;;10.27;9.13;;;5.00;91.50;;;;;;5055979;28;20636;-69
2023/02/28 09:39:09;;;;;;;13.47;9.10;;;5.10;91.70;;;;;;5055336;28;20254;-68
2023/02/28 09:41:50;;;;;;;12.20;9.77;;;5.20;91.70;;;;;;5054662;28;20186;-66
2023/02/28 09:44:31;;;;;;;11.40;8.73;;;5.20;91.50;;;;;;5054439;28;20470;-67
2023/02/28 09:47:05;;;;;;;11.10;9.93;;;5.20;91.20;;;;;;5046391;28;20458;-66
2023/02/28 09:49:39;;;;;;;15.47;9.80;;;5.20;91.20;;;;;;5054173;28;20968;-66
2023/02/28 09:52:11;;;;;;;11.53;8.60;;;5.30;91.10;;;;;;5051119;28;20478;-66
2023/02/28 09:54:38;;;;;;;13.00;9.10;;;5.30;91.00;;;;;;5050209;28;20527;-67
2023/02/28 09:57:35;;;;;;;12.67;9.07;;;5.30;91.00;;;;;;5051222;28;20452;-67
2023/02/28 10:00:12;;;;;;;10.50;8.37;;;5.40;91.10;;;;;;5046507;28;20825;-67
2023/02/28 10:03:03;;;;;;;11.27;9.23;;;5.50;90.90;;;;;;5051863;28;20438;-68
2023/02/28 10:05:37;;;;;;;19.97;10.67;;;5.60;90.80;;;;;;5049924;28;20465;-67
2023/02/28 10:08:14;;;;;;;10.43;9.07;;;5.60;90.50;;;;;;5054064;28;20441;-65
2023/02/28 10:10:49;;;;;;;12.97;9.30;;;5.70;90.30;;;;;;5053452;28;21684;-68
2023/02/28 10:13:24;;;;;;;13.00;9.47;;;5.80;90.10;;;;;;5054666;28;20477;-68
2023/02/28 10:15:54;;;;;;;11.83;9.43;;;5.80;90.00;;;;;;5048319;28;20438;-66
2023/02/28 10:18:25;;;;;;;11.27;8.97;;;5.70;90.00;;;;;;5051486;28;20955;-68
2023/02/28 10:20:52;;;;;;;11.93;9.77;;;5.80;89.60;;;;;;5051356;28;20502;-67
2023/02/28 10:23:34;;;;;;;11.83;9.83;;;5.80;89.60;;;;;;5052842;28;20469;-67
2023/02/28 10:26:18;;;;;;;14.30;9.87;;;5.70;89.70;;;;;;5046944;28;20488;-67
2023/02/28 10:28:45;;;;;;;59.13;13.30;;;5.80;89.30;;;;;;5054212;28;20417;-67
2023/02/28 10:31:17;;;;;;;15.73;9.80;;;5.80;89.00;;;;;;5048456;28;20448;-68
2023/02/28 10:33:43;;;;;;;11.90;9.30;;;5.90;88.90;;;;;;5056933;28;20461;-67
2023/02/28 10:36:17;;;;;;;11.00;9.07;;;5.90;89.10;;;;;;5050201;28;20484;-67
2023/02/28 10:38:44;;;;;;;13.93;9.03;;;5.80;88.70;;;;;;5048583;28;20537;-66
2023/02/28 10:41:26;;;;;;;19.57;10.17;;;5.80;89.20;;;;;;5052670;28;21071;-68
2023/02/28 10:43:52;;;;;;;17.13;9.40;;;6.00;89.30;;;;;;5052297;28;20468;-68
2023/02/28 10:46:25;;;;;;;14.40;10.60;;;6.00;89.10;;;;;;5050842;28;20492;-69
2023/02/28 10:49:05;;;;;;;9.90;8.90;;;6.00;88.60;;;;;;5051616;28;20591;-69
2023/02/28 10:51:39;;;;;;;10.93;9.40;;;6.00;88.60;;;;;;5053939;28;20503;-68
2023/02/28 10:54:05;;;;;;;11.73;9.23;;;6.10;88.50;;;;;;5051351;28;21050;-69
2023/02/28 10:56:32;;;;;;;13.07;9.37;;;6.10;87.90;;;;;;5051950;28;20452;-69
2023/02/28 10:58:59;;;;;;;13.33;10.23;;;6.10;87.50;;;;;;5054774;28;20429;-68
2023/02/28 11:01:36;;;;;;;12.40;9.70;;;6.10;87.70;;;;;;5052665;28;20421;-68
2023/02/28 11:04:02;;;;;;;13.17;10.00;;;6.00;87.40;;;;;;5054312;28;20441;-68
2023/02/28 11:06:34;;;;;;;12.03;9.83;;;6.00;88.10;;;;;;5051555;28;20444;-68
2023/02/28 11:09:00;;;;;;;11.53;9.10;;;6.00;88.40;;;;;;5050011;28;20473;-69
2023/02/28 11:11:29;;;;;;;11.87;9.77;;;6.00;88.00;;;;;;5048955;28;20472;-69
2023/02/28 11:14:04;;;;;;;12.53;9.03;;;6.00;87.90;;;;;;5050723;28;21020;-69
2023/02/28 11:16:36;;;;;;;13.60;10.30;;;6.00;87.70;;;;;;5048780;28;21118;-69
2023/02/28 11:19:05;;;;;;;16.27;11.53;;;6.00;87.70;;;;;;5046432;28;20871;-68
2023/02/28 11:21:34;;;;;;;15.20;11.83;;;6.10;88.00;;;;;;5045013;28;20456;-68
2023/02/28 11:24:24;;;;;;;13.50;9.83;;;6.10;88.10;;;;;;5050151;28;20438;-66
2023/02/28 11:26:50;;;;;;;10.17;9.03;;;6.20;87.70;;;;;;5040830;28;20488;-67
2023/02/28 11:29:18;;;;;;;12.03;9.77;;;6.20;87.70;;;;;;5053512;28;20418;-67
2023/02/28 11:32:18;;;;;;;15.80;11.30;;;6.20;87.40;;;;;;5049671;28;20441;-66
2023/02/28 11:34:44;;;;;;;13.03;10.27;;;6.30;87.60;;;;;;5050906;28;20457;-66
2023/02/28 11:37:14;;;;;;;13.37;10.63;;;6.40;87.00;;;;;;5050100;28;20489;-67
2023/02/28 11:39:40;;;;;;;14.00;9.17;;;6.30;86.50;;;;;;5048877;28;20448;-67
2023/02/28 11:42:21;;;;;;;12.60;10.40;;;6.40;86.40;;;;;;5049432;28;21007;-67
2023/02/28 11:45:05;;;;;;;13.17;10.67;;;6.40;86.40;;;;;;5049614;28;20872;-66
2023/02/28 11:47:33;;;;;;;12.13;10.40;;;6.40;86.30;;;;;;5052134;28;20457;-67
2023/02/28 11:50:11;;;;;;;12.90;10.00;;;6.40;86.10;;;;;;5056189;28;20448;-67
2023/02/28 11:52:52;;;;;;;13.73;10.53;;;6.40;86.60;;;;;;5052250;28;21225;-67
2023/02/28 11:55:27;;;;;;;14.40;9.83;;;6.50;86.60;;;;;;5050376;28;20954;-67
2023/02/28 11:58:26;;;;;;;14.20;11.27;;;6.60;86.30;;;;;;5050566;28;20449;-67
2023/02/28 12:01:16;;;;;;;16.00;10.60;;;6.70;86.10;;;;;;5051024;28;20510;-67
2023/02/28 12:04:10;;;;;;;12.50;9.40;;;6.80;86.60;;;;;;5049416;28;20445;-67
2023/02/28 12:06:43;;;;;;;14.33;10.13;;;6.90;85.40;;;;;;5052274;28;20425;-67
2023/02/28 12:09:48;;;;;;;14.97;9.20;;;7.00;85.30;;;;;;5045394;28;20541;-67
2023/02/28 12:12:46;;;;;;;12.77;10.67;;;7.10;85.40;;;;;;5046246;28;20416;-67
2023/02/28 12:15:28;;;;;;;12.60;9.60;;;7.40;85.10;;;;;;5033495;28;20437;-67
2023/02/28 12:18:03;;;;;;;14.00;10.27;;;8.20;85.10;;;;;;5048919;28;20488;-67
2023/02/28 12:21:14;;;;;;;12.50;10.50;;;8.90;81.10;;;;;;5049367;28;20471;-67
2023/02/28 12:24:00;;;;;;;16.50;10.87;;;9.00;78.70;;;;;;5030969;28;21204;-67
2023/02/28 12:26:36;;;;;;;12.77;10.63;;;8.90;78.00;;;;;;5046333;28;20431;-67
2023/02/28 12:29:23;;;;;;;12.80;10.60;;;9.50;77.90;;;;;;5052664;28;20811;-67
2023/02/28 12:31:58;;;;;;;10.40;9.30;;;10.20;75.30;;;;;;5047877;28;20433;-67
2023/02/28 12:34:47;;;;;;;11.20;9.80;;;11.70;74.50;;;;;;5049366;28;20515;-67
2023/02/28 12:37:19;;;;;;;12.17;10.90;;;13.20;72.20;;;;;;5053418;28;20862;-67
2023/02/28 12:39:48;;;;;;;14.40;10.77;;;14.50;68.20;;;;;;5048429;28;20433;-66
2023/02/28 12:42:23;;;;;;;12.27;10.90;;;15.70;64.40;;;;;;5048487;28;20799;-66
2023/02/28 12:44:54;;;;;;;11.73;10.50;;;16.30;58.40;;;;;;5051599;28;20640;-67
2023/02/28 12:47:19;;;;;;;11.30;10.20;;;16.00;55.30;;;;;;5047102;28;20469;-66
2023/02/28 12:49:53;;;;;;;15.10;11.47;;;15.20;53.70;;;;;;5053550;28;20968;-66
2023/02/28 12:52:43;;;;;;;11.47;10.37;;;14.20;53.60;;;;;;5045128;28;20175;-68
2023/02/28 12:55:17;;;;;;;11.50;10.30;;;14.50;54.10;;;;;;5051227;28;20454;-66
2023/02/28 12:57:58;;;;;;;11.57;10.30;;;14.00;53.20;;;;;;5048963;28;20489;-67
2023/02/28 13:00:28;;;;;;;13.53;12.23;;;13.50;53.60;;;;;;5053173;28;20540;-67
2023/02/28 13:03:42;;;;;;;12.20;10.90;;;13.00;53.80;;;;;;5050963;28;20425;-67
2023/02/28 13:06:52;;;;;;;15.00;11.27;;;12.60;54.70;;;;;;5040567;28;20517;-67
2023/02/28 13:09:18;;;;;;;13.07;11.53;;;12.70;55.80;;;;;;5027012;28;20438;-68